sensor_id;sensor_type;location;lat;lon;timestamp;pressure;altitude;pressure_sealevel;temperature
24201;BMP280;2801;50.972;7.856;2023-02-15T00:02:02;98882.94;;;-0.64
24201;BMP280;2801;50.972;7.856;2023-02-15T00:04:29;98869.88;;;-0.77
24201;BMP280;2801;50.972;7.856;2023-02-15T00:07:16;98880.72;;;-0.67
24201;BMP280;2801;50.972;7.856;2023-02-15T00:09:46;98867.63;;;-0.56
24201;BMP280;2801;50.972;7.856;2023-02-15T00:12:14;98862.44;;;-0.62
24201;BMP280;2801;50.972;7.856;2023-02-15T00:14:40;98862.72;;;-0.70
24201;BMP280;2801;50.972;7.856;2023-02-15T00:17:08;98850.41;;;-0.76
24201;BMP280;2801;50.972;7.856;2023-02-15T00:19:35;98853.78;;;-0.69
24201;BMP280;2801;50.972;7.856;2023-02-15T00:22:02;98857.81;;;-0.67
24201;BMP280;2801;50.972;7.856;2023-02-15T00:24:29;98853.97;;;-0.64
24201;BMP280;2801;50.972;7.856;2023-02-15T00:26:56;98857.59;;;-0.65
24201;BMP280;2801;50.972;7.856;2023-02-15T00:29:22;98858.00;;;-0.62
24201;BMP280;2801;50.972;7.856;2023-02-15T00:31:50;98857.38;;;-0.64
24201;BMP280;2801;50.972;7.856;2023-02-15T00:34:22;98856.31;;;-0.56
24201;BMP280;2801;50.972;7.856;2023-02-15T00:36:50;98857.53;;;-0.59
24201;BMP280;2801;50.972;7.856;2023-02-15T00:39:18;98853.69;;;-0.56
24201;BMP280;2801;50.972;7.856;2023-02-15T00:41:46;98852.03;;;-0.57
24201;BMP280;2801;50.972;7.856;2023-02-15T00:44:14;98859.59;;;-0.61
24201;BMP280;2801;50.972;7.856;2023-02-15T00:46:41;98847.66;;;-0.63
24201;BMP280;2801;50.972;7.856;2023-02-15T00:49:09;98850.72;;;-0.66
24201;BMP280;2801;50.972;7.856;2023-02-15T00:51:37;98845.97;;;-0.76
24201;BMP280;2801;50.972;7.856;2023-02-15T00:54:05;98851.97;;;-0.69
24201;BMP280;2801;50.972;7.856;2023-02-15T00:56:32;98851.16;;;-0.69
24201;BMP280;2801;50.972;7.856;2023-02-15T00:58:59;98850.72;;;-0.66
24201;BMP280;2801;50.972;7.856;2023-02-15T01:01:25;98844.66;;;-0.67
24201;BMP280;2801;50.972;7.856;2023-02-15T01:03:53;98842.84;;;-0.66
24201;BMP280;2801;50.972;7.856;2023-02-15T01:06:19;98841.50;;;-0.75
24201;BMP280;2801;50.972;7.856;2023-02-15T01:08:47;98842.50;;;-0.76
24201;BMP280;2801;50.972;7.856;2023-02-15T01:11:21;98842.31;;;-0.75
24201;BMP280;2801;50.972;7.856;2023-02-15T01:13:52;98839.84;;;-0.70
24201;BMP280;2801;50.972;7.856;2023-02-15T01:16:20;98834.13;;;-0.67
24201;BMP280;2801;50.972;7.856;2023-02-15T01:18:48;98834.31;;;-0.68
24201;BMP280;2801;50.972;7.856;2023-02-15T01:21:22;98833.75;;;-0.70
24201;BMP280;2801;50.972;7.856;2023-02-15T01:23:49;98842.19;;;-0.62
24201;BMP280;2801;50.972;7.856;2023-02-15T01:26:16;98841.50;;;-0.57
24201;BMP280;2801;50.972;7.856;2023-02-15T01:28:45;98839.47;;;-0.55
24201;BMP280;2801;50.972;7.856;2023-02-15T01:31:15;98836.03;;;-0.56
24201;BMP280;2801;50.972;7.856;2023-02-15T01:33:43;98839.91;;;-0.58
24201;BMP280;2801;50.972;7.856;2023-02-15T01:36:10;98830.63;;;-0.61
24201;BMP280;2801;50.972;7.856;2023-02-15T01:38:38;98830.69;;;-0.67
24201;BMP280;2801;50.972;7.856;2023-02-15T01:41:06;98827.88;;;-0.72
24201;BMP280;2801;50.972;7.856;2023-02-15T01:44:00;98823.28;;;-0.77
24201;BMP280;2801;50.972;7.856;2023-02-15T01:46:40;98825.53;;;-0.80
24201;BMP280;2801;50.972;7.856;2023-02-15T01:49:17;98815.50;;;-0.90
24201;BMP280;2801;50.972;7.856;2023-02-15T01:51:48;98812.44;;;-0.87
24201;BMP280;2801;50.972;7.856;2023-02-15T01:54:31;98806.81;;;-0.90
24201;BMP280;2801;50.972;7.856;2023-02-15T01:57:09;98808.28;;;-0.94
24201;BMP280;2801;50.972;7.856;2023-02-15T01:59:43;98805.66;;;-0.94
24201;BMP280;2801;50.972;7.856;2023-02-15T02:02:14;98803.22;;;-0.96
24201;BMP280;2801;50.972;7.856;2023-02-15T02:04:54;98801.81;;;-0.98
24201;BMP280;2801;50.972;7.856;2023-02-15T02:07:27;98805.69;;;-1.01
24201;BMP280;2801;50.972;7.856;2023-02-15T02:09:55;98801.81;;;-0.98
24201;BMP280;2801;50.972;7.856;2023-02-15T02:12:23;98796.78;;;-1.00
24201;BMP280;2801;50.972;7.856;2023-02-15T02:14:52;98797.22;;;-1.03
24201;BMP280;2801;50.972;7.856;2023-02-15T02:17:49;98782.00;;;-1.01
24201;BMP280;2801;50.972;7.856;2023-02-15T02:23:49;98783.25;;;-1.03
24201;BMP280;2801;50.972;7.856;2023-02-15T02:33:39;98784.47;;;-1.06
24201;BMP280;2801;50.972;7.856;2023-02-15T02:36:40;98779.66;;;-1.09
24201;BMP280;2801;50.972;7.856;2023-02-15T02:39:33;98774.56;;;-1.04
24201;BMP280;2801;50.972;7.856;2023-02-15T02:42:16;98770.38;;;-1.11
24201;BMP280;2801;50.972;7.856;2023-02-15T02:44:54;98761.59;;;-1.05
24201;BMP280;2801;50.972;7.856;2023-02-15T02:47:50;98759.56;;;-1.03
24201;BMP280;2801;50.972;7.856;2023-02-15T02:50:25;98759.41;;;-1.08
24201;BMP280;2801;50.972;7.856;2023-02-15T02:52:55;98749.53;;;-1.13
24201;BMP280;2801;50.972;7.856;2023-02-15T02:55:27;98748.94;;;-1.15
24201;BMP280;2801;50.972;7.856;2023-02-15T03:00:42;98744.69;;;-1.16
24201;BMP280;2801;50.972;7.856;2023-02-15T03:03:30;98729.44;;;-1.07
24201;BMP280;2801;50.972;7.856;2023-02-15T03:06:06;98732.69;;;-1.12
24201;BMP280;2801;50.972;7.856;2023-02-15T03:08:46;98735.34;;;-1.12
24201;BMP280;2801;50.972;7.856;2023-02-15T03:11:14;98732.34;;;-1.15
24201;BMP280;2801;50.972;7.856;2023-02-15T03:13:43;98730.75;;;-1.16
24201;BMP280;2801;50.972;7.856;2023-02-15T03:16:13;98734.84;;;-1.20
24201;BMP280;2801;50.972;7.856;2023-02-15T03:19:12;98724.88;;;-1.18
24201;BMP280;2801;50.972;7.856;2023-02-15T03:21:51;98726.66;;;-1.12
24201;BMP280;2801;50.972;7.856;2023-02-15T03:24:51;98729.28;;;-1.12
24201;BMP280;2801;50.972;7.856;2023-02-15T03:27:25;98729.72;;;-1.15
24201;BMP280;2801;50.972;7.856;2023-02-15T03:29:57;98729.94;;;-1.17
24201;BMP280;2801;50.972;7.856;2023-02-15T03:32:29;98728.53;;;-1.19
24201;BMP280;2801;50.972;7.856;2023-02-15T03:34:59;98716.63;;;-1.22
24201;BMP280;2801;50.972;7.856;2023-02-15T03:37:33;98726.72;;;-1.19
24201;BMP280;2801;50.972;7.856;2023-02-15T03:43:43;98730.00;;;-1.23
24201;BMP280;2801;50.972;7.856;2023-02-15T03:46:40;98723.34;;;-1.26
24201;BMP280;2801;50.972;7.856;2023-02-15T03:49:15;98719.34;;;-1.28
24201;BMP280;2801;50.972;7.856;2023-02-15T03:51:47;98722.97;;;-1.29
24201;BMP280;2801;50.972;7.856;2023-02-15T03:54:28;98711.47;;;-1.35
24201;BMP280;2801;50.972;7.856;2023-02-15T03:57:25;98719.00;;;-1.38
24201;BMP280;2801;50.972;7.856;2023-02-15T04:00:19;98714.78;;;-1.39
24201;BMP280;2801;50.972;7.856;2023-02-15T04:05:45;98713.91;;;-1.33
24201;BMP280;2801;50.972;7.856;2023-02-15T04:08:12;98708.81;;;-1.28
24201;BMP280;2801;50.972;7.856;2023-02-15T04:10:39;98721.00;;;-1.16
24201;BMP280;2801;50.972;7.856;2023-02-15T04:13:21;98715.84;;;-1.04
24201;BMP280;2801;50.972;7.856;2023-02-15T04:15:48;98717.53;;;-0.92
24201;BMP280;2801;50.972;7.856;2023-02-15T04:18:39;98712.84;;;-0.90
24201;BMP280;2801;50.972;7.856;2023-02-15T04:21:27;98713.25;;;-0.93
24201;BMP280;2801;50.972;7.856;2023-02-15T04:24:13;98709.47;;;-0.97
24201;BMP280;2801;50.972;7.856;2023-02-15T04:27:00;98696.25;;;-1.08
24201;BMP280;2801;50.972;7.856;2023-02-15T04:29:28;98706.56;;;-1.07
24201;BMP280;2801;50.972;7.856;2023-02-15T04:31:59;98697.91;;;-1.14
24201;BMP280;2801;50.972;7.856;2023-02-15T04:34:26;98699.94;;;-1.16
24201;BMP280;2801;50.972;7.856;2023-02-15T04:36:53;98696.53;;;-1.16
24201;BMP280;2801;50.972;7.856;2023-02-15T04:39:20;98703.81;;;-1.18
24201;BMP280;2801;50.972;7.856;2023-02-15T04:41:47;98704.03;;;-1.20
24201;BMP280;2801;50.972;7.856;2023-02-15T04:44:14;98703.69;;;-1.23
24201;BMP280;2801;50.972;7.856;2023-02-15T04:46:41;98700.91;;;-1.28
24201;BMP280;2801;50.972;7.856;2023-02-15T04:49:09;98702.31;;;-1.26
24201;BMP280;2801;50.972;7.856;2023-02-15T04:51:36;98706.09;;;-1.22
24201;BMP280;2801;50.972;7.856;2023-02-15T04:54:03;98709.53;;;-1.21
24201;BMP280;2801;50.972;7.856;2023-02-15T04:56:30;98708.34;;;-1.25
24201;BMP280;2801;50.972;7.856;2023-02-15T04:58:57;98695.91;;;-1.36
24201;BMP280;2801;50.972;7.856;2023-02-15T05:01:24;98700.53;;;-1.32
24201;BMP280;2801;50.972;7.856;2023-02-15T05:03:51;98702.63;;;-1.40
24201;BMP280;2801;50.972;7.856;2023-02-15T05:06:18;98697.81;;;-1.43
24201;BMP280;2801;50.972;7.856;2023-02-15T05:08:45;98704.09;;;-1.44
24201;BMP280;2801;50.972;7.856;2023-02-15T05:11:12;98695.41;;;-1.45
24201;BMP280;2801;50.972;7.856;2023-02-15T05:13:39;98690.38;;;-1.53
24201;BMP280;2801;50.972;7.856;2023-02-15T05:16:05;98689.81;;;-1.55
24201;BMP280;2801;50.972;7.856;2023-02-15T05:18:32;98692.66;;;-1.56
24201;BMP280;2801;50.972;7.856;2023-02-15T05:20:59;98685.59;;;-1.56
24201;BMP280;2801;50.972;7.856;2023-02-15T05:23:26;98682.69;;;-1.48
24201;BMP280;2801;50.972;7.856;2023-02-15T05:25:53;98685.09;;;-1.46
24201;BMP280;2801;50.972;7.856;2023-02-15T05:28:38;98693.00;;;-1.46
24201;BMP280;2801;50.972;7.856;2023-02-15T05:31:12;98683.25;;;-1.46
24201;BMP280;2801;50.972;7.856;2023-02-15T05:33:40;98680.25;;;-1.49
24201;BMP280;2801;50.972;7.856;2023-02-15T05:36:08;98686.78;;;-1.52
24201;BMP280;2801;50.972;7.856;2023-02-15T05:38:35;98686.56;;;-1.50
24201;BMP280;2801;50.972;7.856;2023-02-15T05:41:09;98690.38;;;-1.53
24201;BMP280;2801;50.972;7.856;2023-02-15T05:43:37;98683.19;;;-1.57
24201;BMP280;2801;50.972;7.856;2023-02-15T05:46:05;98685.38;;;-1.54
24201;BMP280;2801;50.972;7.856;2023-02-15T05:48:33;98676.34;;;-1.65
24201;BMP280;2801;50.972;7.856;2023-02-15T05:51:06;98684.03;;;-1.63
24201;BMP280;2801;50.972;7.856;2023-02-15T05:53:37;98679.19;;;-1.66
24201;BMP280;2801;50.972;7.856;2023-02-15T05:56:07;98688.22;;;-1.56
24201;BMP280;2801;50.972;7.856;2023-02-15T05:58:38;98689.94;;;-1.68
24201;BMP280;2801;50.972;7.856;2023-02-15T06:01:15;98688.50;;;-1.64
24201;BMP280;2801;50.972;7.856;2023-02-15T06:03:42;98688.16;;;-1.74
24201;BMP280;2801;50.972;7.856;2023-02-15T06:06:10;98693.78;;;-1.70
24201;BMP280;2801;50.972;7.856;2023-02-15T06:08:38;98691.97;;;-1.70
24201;BMP280;2801;50.972;7.856;2023-02-15T06:11:06;98689.56;;;-1.71
24201;BMP280;2801;50.972;7.856;2023-02-15T06:13:34;98702.91;;;-1.73
24201;BMP280;2801;50.972;7.856;2023-02-15T06:16:06;98697.44;;;-1.71
24201;BMP280;2801;50.972;7.856;2023-02-15T06:18:33;98694.00;;;-1.72
24201;BMP280;2801;50.972;7.856;2023-02-15T06:21:00;98693.84;;;-1.77
24201;BMP280;2801;50.972;7.856;2023-02-15T06:23:27;98694.06;;;-1.78
24201;BMP280;2801;50.972;7.856;2023-02-15T06:25:54;98693.50;;;-1.80
24201;BMP280;2801;50.972;7.856;2023-02-15T06:28:21;98689.41;;;-1.76
24201;BMP280;2801;50.972;7.856;2023-02-15T06:30:48;98688.38;;;-1.75
24201;BMP280;2801;50.972;7.856;2023-02-15T06:33:15;98686.13;;;-1.72
24201;BMP280;2801;50.972;7.856;2023-02-15T06:35:41;98685.91;;;-1.70
24201;BMP280;2801;50.972;7.856;2023-02-15T06:38:08;98687.47;;;-1.63
24201;BMP280;2801;50.972;7.856;2023-02-15T06:40:35;98688.25;;;-1.62
24201;BMP280;2801;50.972;7.856;2023-02-15T06:43:02;98689.69;;;-1.60
24201;BMP280;2801;50.972;7.856;2023-02-15T06:45:29;98694.47;;;-1.57
24201;BMP280;2801;50.972;7.856;2023-02-15T06:47:56;98699.75;;;-1.57
24201;BMP280;2801;50.972;7.856;2023-02-15T06:50:23;98705.66;;;-1.61
24201;BMP280;2801;50.972;7.856;2023-02-15T06:52:55;98705.66;;;-1.61
24201;BMP280;2801;50.972;7.856;2023-02-15T06:55:22;98705.81;;;-1.56
24201;BMP280;2801;50.972;7.856;2023-02-15T06:57:49;98712.66;;;-1.55
24201;BMP280;2801;50.972;7.856;2023-02-15T07:00:17;98708.59;;;-1.51
24201;BMP280;2801;50.972;7.856;2023-02-15T07:02:45;98700.44;;;-1.43
24201;BMP280;2801;50.972;7.856;2023-02-15T07:05:11;98705.72;;;-1.43
24201;BMP280;2801;50.972;7.856;2023-02-15T07:07:38;98702.63;;;-1.40
24201;BMP280;2801;50.972;7.856;2023-02-15T07:10:06;98695.91;;;-1.36
24201;BMP280;2801;50.972;7.856;2023-02-15T07:12:33;98704.81;;;-1.37
24201;BMP280;2801;50.972;7.856;2023-02-15T07:15:17;98698.09;;;-1.33
24201;BMP280;2801;50.972;7.856;2023-02-15T07:17:44;98697.03;;;-1.26
24201;BMP280;2801;50.972;7.856;2023-02-15T07:20:16;98691.91;;;-1.21
24201;BMP280;2801;50.972;7.856;2023-02-15T07:22:44;98693.31;;;-1.18
24201;BMP280;2801;50.972;7.856;2023-02-15T07:25:12;98692.38;;;-1.06
24201;BMP280;2801;50.972;7.856;2023-02-15T07:27:39;98708.59;;;-0.91
24201;BMP280;2801;50.972;7.856;2023-02-15T07:30:10;98699.84;;;-0.85
24201;BMP280;2801;50.972;7.856;2023-02-15T07:32:37;98683.22;;;-0.85
24201;BMP280;2801;50.972;7.856;2023-02-15T07:35:25;98684.47;;;-0.88
24201;BMP280;2801;50.972;7.856;2023-02-15T07:37:52;98684.72;;;-0.78
24201;BMP280;2801;50.972;7.856;2023-02-15T07:40:20;98684.94;;;-0.61
24201;BMP280;2801;50.972;7.856;2023-02-15T07:42:50;98686.16;;;-0.46
24201;BMP280;2801;50.972;7.856;2023-02-15T07:45:21;98697.50;;;-0.16
24201;BMP280;2801;50.972;7.856;2023-02-15T07:47:49;98685.53;;;0.00
24201;BMP280;2801;50.972;7.856;2023-02-15T07:50:16;98684.28;;;0.14
24201;BMP280;2801;50.972;7.856;2023-02-15T07:52:43;98686.22;;;0.30
24201;BMP280;2801;50.972;7.856;2023-02-15T07:55:10;98686.59;;;0.45
24201;BMP280;2801;50.972;7.856;2023-02-15T07:57:44;98684.41;;;0.54
24201;BMP280;2801;50.972;7.856;2023-02-15T08:00:14;98673.75;;;0.60
24201;BMP280;2801;50.972;7.856;2023-02-15T08:02:47;98672.84;;;0.66
24201;BMP280;2801;50.972;7.856;2023-02-15T08:05:14;98673.63;;;0.78
24201;BMP280;2801;50.972;7.856;2023-02-15T08:07:41;98662.72;;;0.86
24201;BMP280;2801;50.972;7.856;2023-02-15T08:10:08;98667.84;;;1.04
24201;BMP280;2801;50.972;7.856;2023-02-15T08:12:35;98656.00;;;1.18
24201;BMP280;2801;50.972;7.856;2023-02-15T08:15:02;98653.31;;;1.30
24201;BMP280;2801;50.972;7.856;2023-02-15T08:17:29;98655.22;;;1.46
24201;BMP280;2801;50.972;7.856;2023-02-15T08:19:55;98649.41;;;1.60
24201;BMP280;2801;50.972;7.856;2023-02-15T08:22:22;98637.41;;;1.69
24201;BMP280;2801;50.972;7.856;2023-02-15T08:24:49;98637.78;;;1.89
24201;BMP280;2801;50.972;7.856;2023-02-15T08:27:16;98639.78;;;2.15
24201;BMP280;2801;50.972;7.856;2023-02-15T08:29:43;98636.97;;;2.38
24201;BMP280;2801;50.972;7.856;2023-02-15T08:32:11;98616.31;;;2.57
24201;BMP280;2801;50.972;7.856;2023-02-15T08:34:41;98626.41;;;2.98
24201;BMP280;2801;50.972;7.856;2023-02-15T08:37:08;98620.31;;;3.19
24201;BMP280;2801;50.972;7.856;2023-02-15T08:39:36;98634.66;;;3.44
24201;BMP280;2801;50.972;7.856;2023-02-15T08:42:03;98618.09;;;3.59
24201;BMP280;2801;50.972;7.856;2023-02-15T08:44:30;98629.94;;;3.78
24201;BMP280;2801;50.972;7.856;2023-02-15T08:46:57;98615.66;;;3.79
24201;BMP280;2801;50.972;7.856;2023-02-15T08:49:32;98622.75;;;4.05
24201;BMP280;2801;50.972;7.856;2023-02-15T08:51:59;98623.03;;;4.40
24201;BMP280;2801;50.972;7.856;2023-02-15T08:54:26;98620.88;;;4.79
24201;BMP280;2801;50.972;7.856;2023-02-15T08:56:53;98604.91;;;5.40
24201;BMP280;2801;50.972;7.856;2023-02-15T08:59:22;98603.47;;;6.39
24201;BMP280;2801;50.972;7.856;2023-02-15T09:01:52;98609.50;;;7.48
24201;BMP280;2801;50.972;7.856;2023-02-15T09:04:20;98594.16;;;8.41
24201;BMP280;2801;50.972;7.856;2023-02-15T09:06:49;98584.91;;;9.28
24201;BMP280;2801;50.972;7.856;2023-02-15T09:09:17;98582.25;;;9.83
24201;BMP280;2801;50.972;7.856;2023-02-15T09:11:48;98580.41;;;10.16
24201;BMP280;2801;50.972;7.856;2023-02-15T09:14:20;98583.81;;;10.53
24201;BMP280;2801;50.972;7.856;2023-02-15T09:16:48;98572.41;;;11.02
24201;BMP280;2801;50.972;7.856;2023-02-15T09:19:20;98567.59;;;11.40
24201;BMP280;2801;50.972;7.856;2023-02-15T09:21:48;98562.50;;;11.52
24201;BMP280;2801;50.972;7.856;2023-02-15T09:24:16;98555.94;;;11.71
24201;BMP280;2801;50.972;7.856;2023-02-15T09:26:46;98559.34;;;11.63
24201;BMP280;2801;50.972;7.856;2023-02-15T09:29:14;98560.22;;;11.59
24201;BMP280;2801;50.972;7.856;2023-02-15T09:31:48;98561.31;;;11.44
24201;BMP280;2801;50.972;7.856;2023-02-15T09:34:20;98556.09;;;11.25
24201;BMP280;2801;50.972;7.856;2023-02-15T09:36:48;98558.81;;;10.85
24201;BMP280;2801;50.972;7.856;2023-02-15T09:39:22;98569.50;;;10.44
24201;BMP280;2801;50.972;7.856;2023-02-15T09:46:26;98576.91;;;9.65
24201;BMP280;2801;50.972;7.856;2023-02-15T09:48:40;98576.97;;;9.41
24201;BMP280;2801;50.972;7.856;2023-02-15T09:51:51;98571.22;;;9.29
24201;BMP280;2801;50.972;7.856;2023-02-15T10:06:14;98568.72;;;8.72
24201;BMP280;2801;50.972;7.856;2023-02-15T10:12:04;98587.16;;;8.17
24201;BMP280;2801;50.972;7.856;2023-02-15T10:17:40;98597.53;;;7.85
24201;BMP280;2801;50.972;7.856;2023-02-15T10:26:20;98599.03;;;7.96
24201;BMP280;2801;50.972;7.856;2023-02-15T10:28:57;98596.53;;;8.09
24201;BMP280;2801;50.972;7.856;2023-02-15T10:31:50;98596.09;;;7.97
24201;BMP280;2801;50.972;7.856;2023-02-15T10:34:37;98602.81;;;7.90
24201;BMP280;2801;50.972;7.856;2023-02-15T10:40:10;98595.06;;;7.93
24201;BMP280;2801;50.972;7.856;2023-02-15T10:43:02;98590.97;;;8.01
24201;BMP280;2801;50.972;7.856;2023-02-15T10:46:23;98593.59;;;8.11
24201;BMP280;2801;50.972;7.856;2023-02-15T10:57:30;98582.50;;;8.84
24201;BMP280;2801;50.972;7.856;2023-02-15T11:03:00;98581.13;;;8.87
24201;BMP280;2801;50.972;7.856;2023-02-15T11:08:17;98565.41;;;9.04
24201;BMP280;2801;50.972;7.856;2023-02-15T11:10:51;98562.09;;;9.12
24201;BMP280;2801;50.972;7.856;2023-02-15T11:13:22;98558.22;;;9.23
24201;BMP280;2801;50.972;7.856;2023-02-15T11:16:05;98561.53;;;9.33
24201;BMP280;2801;50.972;7.856;2023-02-15T11:18:40;98554.53;;;9.37
24201;BMP280;2801;50.972;7.856;2023-02-15T11:21:37;98553.72;;;9.37
24201;BMP280;2801;50.972;7.856;2023-02-15T11:24:15;98546.75;;;9.41
24201;BMP280;2801;50.972;7.856;2023-02-15T11:26:51;98543.13;;;9.50
24201;BMP280;2801;50.972;7.856;2023-02-15T11:29:33;98533.44;;;9.54
24201;BMP280;2801;50.972;7.856;2023-02-15T11:32:20;98537.22;;;9.67
24201;BMP280;2801;50.972;7.856;2023-02-15T11:35:18;98539.47;;;9.78
24201;BMP280;2801;50.972;7.856;2023-02-15T11:37:57;98534.44;;;9.90
24201;BMP280;2801;50.972;7.856;2023-02-15T11:40:40;98528.13;;;10.00
24201;BMP280;2801;50.972;7.856;2023-02-15T11:43:17;98522.78;;;10.00
24201;BMP280;2801;50.972;7.856;2023-02-15T11:45:47;98526.31;;;10.14
24201;BMP280;2801;50.972;7.856;2023-02-15T11:48:15;98514.22;;;10.16
24201;BMP280;2801;50.972;7.856;2023-02-15T11:50:43;98522.97;;;10.22
24201;BMP280;2801;50.972;7.856;2023-02-15T11:53:17;98508.69;;;10.26
24201;BMP280;2801;50.972;7.856;2023-02-15T11:55:48;98503.94;;;10.37
24201;BMP280;2801;50.972;7.856;2023-02-15T12:01:16;98500.09;;;10.56
24201;BMP280;2801;50.972;7.856;2023-02-15T12:03:52;98498.28;;;10.65
24201;BMP280;2801;50.972;7.856;2023-02-15T12:06:28;98495.72;;;10.74
24201;BMP280;2801;50.972;7.856;2023-02-15T12:09:35;98481.47;;;10.87
24201;BMP280;2801;50.972;7.856;2023-02-15T12:12:39;98476.22;;;10.95
24201;BMP280;2801;50.972;7.856;2023-02-15T12:15:09;98481.59;;;10.95
24201;BMP280;2801;50.972;7.856;2023-02-15T12:17:48;98465.31;;;10.92
24201;BMP280;2801;50.972;7.856;2023-02-15T12:22:59;98471.81;;;11.13
24201;BMP280;2801;50.972;7.856;2023-02-15T12:25:49;98470.31;;;11.20
24201;BMP280;2801;50.972;7.856;2023-02-15T12:28:44;98470.00;;;11.22
24201;BMP280;2801;50.972;7.856;2023-02-15T12:31:28;98466.31;;;11.32
24201;BMP280;2801;50.972;7.856;2023-02-15T12:34:02;98466.19;;;11.37
24201;BMP280;2801;50.972;7.856;2023-02-15T12:36:43;98454.22;;;11.43
24201;BMP280;2801;50.972;7.856;2023-02-15T12:44:31;98447.78;;;11.66
24201;BMP280;2801;50.972;7.856;2023-02-15T12:49:43;98449.16;;;11.85
24201;BMP280;2801;50.972;7.856;2023-02-15T12:54:44;98441.81;;;11.99
24201;BMP280;2801;50.972;7.856;2023-02-15T12:57:29;98431.75;;;12.05
24201;BMP280;2801;50.972;7.856;2023-02-15T13:00:26;98430.03;;;12.09
24201;BMP280;2801;50.972;7.856;2023-02-15T13:02:59;98426.72;;;12.12
24201;BMP280;2801;50.972;7.856;2023-02-15T13:08:16;98417.72;;;12.16
24201;BMP280;2801;50.972;7.856;2023-02-15T13:11:00;98415.22;;;12.20
24201;BMP280;2801;50.972;7.856;2023-02-15T13:13:33;98409.97;;;12.15
24201;BMP280;2801;50.972;7.856;2023-02-15T13:16:11;98415.03;;;12.16
24201;BMP280;2801;50.972;7.856;2023-02-15T13:18:46;98402.69;;;12.15
24201;BMP280;2801;50.972;7.856;2023-02-15T13:21:25;98403.03;;;12.22
24201;BMP280;2801;50.972;7.856;2023-02-15T13:24:04;98404.94;;;12.22
24201;BMP280;2801;50.972;7.856;2023-02-15T13:26:34;98405.41;;;12.24
24201;BMP280;2801;50.972;7.856;2023-02-15T13:29:15;98405.91;;;12.26
24201;BMP280;2801;50.972;7.856;2023-02-15T13:31:44;98388.16;;;12.25
24201;BMP280;2801;50.972;7.856;2023-02-15T13:34:26;98394.50;;;12.29
24201;BMP280;2801;50.972;7.856;2023-02-15T13:37:45;98395.81;;;12.31
24201;BMP280;2801;50.972;7.856;2023-02-15T13:40:25;98399.13;;;12.28
24201;BMP280;2801;50.972;7.856;2023-02-15T13:43:10;98384.72;;;12.24
24201;BMP280;2801;50.972;7.856;2023-02-15T13:46:12;98388.16;;;12.25
24201;BMP280;2801;50.972;7.856;2023-02-15T13:49:17;98391.00;;;12.20
24201;BMP280;2801;50.972;7.856;2023-02-15T13:51:57;98379.78;;;12.18
24201;BMP280;2801;50.972;7.856;2023-02-15T14:00:48;98376.00;;;12.19
24201;BMP280;2801;50.972;7.856;2023-02-15T14:21:21;98358.78;;;11.89
24201;BMP280;2801;50.972;7.856;2023-02-15T14:24:14;98354.66;;;11.83
24201;BMP280;2801;50.972;7.856;2023-02-15T14:29:58;98348.66;;;11.86
24201;BMP280;2801;50.972;7.856;2023-02-15T14:32:34;98349.50;;;11.95
24201;BMP280;2801;50.972;7.856;2023-02-15T14:35:21;98348.25;;;12.01
24201;BMP280;2801;50.972;7.856;2023-02-15T14:37:52;98355.69;;;12.04
24201;BMP280;2801;50.972;7.856;2023-02-15T14:43:59;98349.66;;;11.99
24201;BMP280;2801;50.972;7.856;2023-02-15T14:49:26;98347.06;;;11.85
24201;BMP280;2801;50.972;7.856;2023-02-15T14:59:56;98353.34;;;11.50
24201;BMP280;2801;50.972;7.856;2023-02-15T15:02:41;98351.09;;;11.44
24201;BMP280;2801;50.972;7.856;2023-02-15T15:05:33;98361.09;;;11.29
24201;BMP280;2801;50.972;7.856;2023-02-15T15:08:03;98364.00;;;11.19
24201;BMP280;2801;50.972;7.856;2023-02-15T15:10:39;98368.53;;;11.10
24201;BMP280;2801;50.972;7.856;2023-02-15T15:19:05;98358.28;;;10.90
24201;BMP280;2801;50.972;7.856;2023-02-15T15:21:55;98355.81;;;10.80
24201;BMP280;2801;50.972;7.856;2023-02-15T15:27:44;98366.25;;;10.33
24201;BMP280;2801;50.972;7.856;2023-02-15T15:50:20;98356.16;;;9.25
24201;BMP280;2801;50.972;7.856;2023-02-15T15:52:55;98358.22;;;9.15
24201;BMP280;2801;50.972;7.856;2023-02-15T15:55:28;98357.91;;;8.98
24201;BMP280;2801;50.972;7.856;2023-02-15T15:58:06;98353.91;;;8.82
24201;BMP280;2801;50.972;7.856;2023-02-15T16:00:49;98347.91;;;8.71
24201;BMP280;2801;50.972;7.856;2023-02-15T16:03:24;98346.94;;;8.62
24201;BMP280;2801;50.972;7.856;2023-02-15T16:05:52;98359.44;;;8.48
24201;BMP280;2801;50.972;7.856;2023-02-15T16:08:38;98362.00;;;8.35
24201;BMP280;2801;50.972;7.856;2023-02-15T16:11:27;98372.31;;;8.23
24201;BMP280;2801;50.972;7.856;2023-02-15T16:13:56;98374.84;;;8.09
24201;BMP280;2801;50.972;7.856;2023-02-15T16:16:27;98377.13;;;7.97
24201;BMP280;2801;50.972;7.856;2023-02-15T16:18:58;98380.19;;;7.86
24201;BMP280;2801;50.972;7.856;2023-02-15T16:21:35;98392.63;;;7.72
24201;BMP280;2801;50.972;7.856;2023-02-15T16:30:31;98404.47;;;7.27
24201;BMP280;2801;50.972;7.856;2023-02-15T16:33:14;98398.47;;;7.06
24201;BMP280;2801;50.972;7.856;2023-02-15T16:35:57;98394.88;;;6.87
24201;BMP280;2801;50.972;7.856;2023-02-15T16:41:12;98396.97;;;6.47
24201;BMP280;2801;50.972;7.856;2023-02-15T16:43:44;98401.28;;;6.33
24201;BMP280;2801;50.972;7.856;2023-02-15T16:46:31;98404.59;;;6.15
24201;BMP280;2801;50.972;7.856;2023-02-15T16:49:05;98409.69;;;6.01
24201;BMP280;2801;50.972;7.856;2023-02-15T16:51:34;98411.81;;;5.89
24201;BMP280;2801;50.972;7.856;2023-02-15T16:54:19;98410.50;;;5.72
24201;BMP280;2801;50.972;7.856;2023-02-15T16:56:48;98416.38;;;5.64
24201;BMP280;2801;50.972;7.856;2023-02-15T16:59:46;98420.63;;;5.60
24201;BMP280;2801;50.972;7.856;2023-02-15T17:02:28;98422.22;;;5.56
24201;BMP280;2801;50.972;7.856;2023-02-15T17:05:18;98417.44;;;5.48
24201;BMP280;2801;50.972;7.856;2023-02-15T17:08:10;98422.75;;;5.38
24201;BMP280;2801;50.972;7.856;2023-02-15T17:10:42;98427.81;;;5.29
24201;BMP280;2801;50.972;7.856;2023-02-15T17:13:17;98411.03;;;5.09
24201;BMP280;2801;50.972;7.856;2023-02-15T17:18:45;98425.38;;;4.93
24201;BMP280;2801;50.972;7.856;2023-02-15T17:21:32;98416.31;;;4.79
24201;BMP280;2801;50.972;7.856;2023-02-15T17:24:02;98427.47;;;4.76
24201;BMP280;2801;50.972;7.856;2023-02-15T17:26:34;98423.47;;;4.68
24201;BMP280;2801;50.972;7.856;2023-02-15T17:29:29;98414.38;;;4.54
24201;BMP280;2801;50.972;7.856;2023-02-15T17:31:57;98430.06;;;4.51
24201;BMP280;2801;50.972;7.856;2023-02-15T17:40:29;98428.66;;;4.33
24201;BMP280;2801;50.972;7.856;2023-02-15T17:42:56;98424.69;;;4.31
24201;BMP280;2801;50.972;7.856;2023-02-15T17:45:32;98425.19;;;4.23
24201;BMP280;2801;50.972;7.856;2023-02-15T17:48:03;98427.28;;;4.21
24201;BMP280;2801;50.972;7.856;2023-02-15T17:50:32;98414.50;;;4.08
24201;BMP280;2801;50.972;7.856;2023-02-15T17:53:00;98427.22;;;4.11
24201;BMP280;2801;50.972;7.856;2023-02-15T17:55:27;98426.94;;;4.07
24201;BMP280;2801;50.972;7.856;2023-02-15T17:58:04;98418.97;;;4.02
24201;BMP280;2801;50.972;7.856;2023-02-15T18:00:36;98421.56;;;3.92